sensor_id;sensor_type;location;lat;lon;timestamp;P1;durP1;ratioP1;P2;durP2;ratioP2
20241;SDS011;10279;46.388;8.116;2024-02-16T00:00:10;1.63;;;0.80;;
20241;SDS011;10279;46.388;8.116;2024-02-16T00:02:38;0.60;;;0.50;;
20241;SDS011;10279;46.388;8.116;2024-02-16T00:05:07;0.87;;;0.60;;
20241;SDS011;10279;46.388;8.116;2024-02-16T00:07:34;0.70;;;0.63;;
20241;SDS011;10279;46.388;8.116;2024-02-16T00:10:01;1.03;;;0.50;;
20241;SDS011;10279;46.388;8.116;2024-02-16T00:12:31;0.90;;;0.47;;
20241;SDS011;10279;46.388;8.116;2024-02-16T00:14:58;1.07;;;0.50;;
20241;SDS011;10279;46.388;8.116;2024-02-16T00:17:27;0.90;;;0.50;;
20241;SDS011;10279;46.388;8.116;2024-02-16T00:19:55;1.13;;;0.47;;
20241;SDS011;10279;46.388;8.116;2024-02-16T00:22:23;0.50;;;0.50;;
20241;SDS011;10279;46.388;8.116;2024-02-16T00:24:51;1.27;;;0.70;;
20241;SDS011;10279;46.388;8.116;2024-02-16T00:27:18;0.93;;;0.57;;
20241;SDS011;10279;46.388;8.116;2024-02-16T00:29:46;0.33;;;0.33;;
20241;SDS011;10279;46.388;8.116;2024-02-16T00:32:13;0.93;;;0.50;;
20241;SDS011;10279;46.388;8.116;2024-02-16T00:34:41;0.60;;;0.40;;
20241;SDS011;10279;46.388;8.116;2024-02-16T00:37:09;0.70;;;0.50;;
20241;SDS011;10279;46.388;8.116;2024-02-16T00:39:38;0.30;;;0.30;;
20241;SDS011;10279;46.388;8.116;2024-02-16T00:42:09;0.40;;;0.40;;
20241;SDS011;10279;46.388;8.116;2024-02-16T00:44:37;0.70;;;0.50;;
20241;SDS011;10279;46.388;8.116;2024-02-16T00:47:05;0.50;;;0.40;;
20241;SDS011;10279;46.388;8.116;2024-02-16T00:49:33;1.37;;;0.40;;
20241;SDS011;10279;46.388;8.116;2024-02-16T00:52:00;0.50;;;0.40;;
20241;SDS011;10279;46.388;8.116;2024-02-16T00:54:28;0.80;;;0.80;;
20241;SDS011;10279;46.388;8.116;2024-02-16T00:56:56;0.67;;;0.50;;
20241;SDS011;10279;46.388;8.116;2024-02-16T00:59:28;0.63;;;0.30;;
20241;SDS011;10279;46.388;8.116;2024-02-16T01:01:56;1.50;;;0.47;;
20241;SDS011;10279;46.388;8.116;2024-02-16T01:04:23;0.60;;;0.60;;
20241;SDS011;10279;46.388;8.116;2024-02-16T01:06:50;0.90;;;0.60;;
20241;SDS011;10279;46.388;8.116;2024-02-16T01:09:17;0.50;;;0.50;;
20241;SDS011;10279;46.388;8.116;2024-02-16T01:11:44;0.60;;;0.50;;
20241;SDS011;10279;46.388;8.116;2024-02-16T01:14:12;0.83;;;0.50;;
20241;SDS011;10279;46.388;8.116;2024-02-16T01:16:39;0.80;;;0.60;;
20241;SDS011;10279;46.388;8.116;2024-02-16T01:19:06;0.70;;;0.50;;
20241;SDS011;10279;46.388;8.116;2024-02-16T01:21:34;2.63;;;0.60;;
20241;SDS011;10279;46.388;8.116;2024-02-16T01:24:01;0.60;;;0.60;;
20241;SDS011;10279;46.388;8.116;2024-02-16T01:26:28;0.93;;;0.53;;
20241;SDS011;10279;46.388;8.116;2024-02-16T01:28:56;1.40;;;0.60;;
20241;SDS011;10279;46.388;8.116;2024-02-16T01:31:24;0.70;;;0.50;;
20241;SDS011;10279;46.388;8.116;2024-02-16T01:33:52;1.10;;;0.50;;
20241;SDS011;10279;46.388;8.116;2024-02-16T01:36:19;1.57;;;0.40;;
20241;SDS011;10279;46.388;8.116;2024-02-16T01:38:47;0.83;;;0.60;;
20241;SDS011;10279;46.388;8.116;2024-02-16T01:41:14;2.13;;;0.60;;
20241;SDS011;10279;46.388;8.116;2024-02-16T01:43:41;3.53;;;1.03;;
20241;SDS011;10279;46.388;8.116;2024-02-16T01:46:09;0.83;;;0.57;;
20241;SDS011;10279;46.388;8.116;2024-02-16T01:48:36;1.27;;;0.80;;
20241;SDS011;10279;46.388;8.116;2024-02-16T01:51:07;0.67;;;0.50;;
20241;SDS011;10279;46.388;8.116;2024-02-16T01:53:36;1.60;;;0.40;;
20241;SDS011;10279;46.388;8.116;2024-02-16T01:56:04;1.60;;;0.70;;
20241;SDS011;10279;46.388;8.116;2024-02-16T01:58:33;0.80;;;0.40;;
20241;SDS011;10279;46.388;8.116;2024-02-16T02:01:00;0.83;;;0.40;;
20241;SDS011;10279;46.388;8.116;2024-02-16T02:03:28;0.70;;;0.40;;
20241;SDS011;10279;46.388;8.116;2024-02-16T02:05:56;1.57;;;0.40;;
20241;SDS011;10279;46.388;8.116;2024-02-16T02:08:23;0.87;;;0.50;;
20241;SDS011;10279;46.388;8.116;2024-02-16T02:10:52;2.07;;;0.60;;
20241;SDS011;10279;46.388;8.116;2024-02-16T02:13:20;0.70;;;0.47;;
20241;SDS011;10279;46.388;8.116;2024-02-16T02:15:48;0.50;;;0.50;;
20241;SDS011;10279;46.388;8.116;2024-02-16T02:18:16;0.33;;;0.33;;
20241;SDS011;10279;46.388;8.116;2024-02-16T02:20:43;0.40;;;0.40;;
20241;SDS011;10279;46.388;8.116;2024-02-16T02:23:10;2.00;;;0.67;;
20241;SDS011;10279;46.388;8.116;2024-02-16T02:25:37;0.30;;;0.30;;
20241;SDS011;10279;46.388;8.116;2024-02-16T02:28:06;0.63;;;0.20;;
20241;SDS011;10279;46.388;8.116;2024-02-16T02:30:34;0.20;;;0.20;;
20241;SDS011;10279;46.388;8.116;2024-02-16T02:33:02;0.47;;;0.40;;
20241;SDS011;10279;46.388;8.116;2024-02-16T02:35:29;0.40;;;0.40;;
20241;SDS011;10279;46.388;8.116;2024-02-16T02:37:56;0.60;;;0.30;;
20241;SDS011;10279;46.388;8.116;2024-02-16T02:40:24;0.23;;;0.23;;
20241;SDS011;10279;46.388;8.116;2024-02-16T02:42:52;0.40;;;0.40;;
20241;SDS011;10279;46.388;8.116;2024-02-16T02:45:20;0.73;;;0.40;;
20241;SDS011;10279;46.388;8.116;2024-02-16T02:47:47;0.83;;;0.50;;
20241;SDS011;10279;46.388;8.116;2024-02-16T02:50:15;0.30;;;0.20;;
20241;SDS011;10279;46.388;8.116;2024-02-16T02:52:43;0.40;;;0.40;;
20241;SDS011;10279;46.388;8.116;2024-02-16T02:55:12;0.57;;;0.40;;
20241;SDS011;10279;46.388;8.116;2024-02-16T02:57:39;0.50;;;0.40;;
20241;SDS011;10279;46.388;8.116;2024-02-16T03:00:06;0.70;;;0.47;;
20241;SDS011;10279;46.388;8.116;2024-02-16T03:02:38;1.37;;;0.70;;
20241;SDS011;10279;46.388;8.116;2024-02-16T03:05:06;0.83;;;0.40;;
20241;SDS011;10279;46.388;8.116;2024-02-16T03:07:34;0.67;;;0.30;;
20241;SDS011;10279;46.388;8.116;2024-02-16T03:10:01;0.40;;;0.40;;
20241;SDS011;10279;46.388;8.116;2024-02-16T03:12:29;0.43;;;0.40;;
20241;SDS011;10279;46.388;8.116;2024-02-16T03:14:59;1.50;;;0.40;;
20241;SDS011;10279;46.388;8.116;2024-02-16T03:17:27;1.50;;;0.47;;
20241;SDS011;10279;46.388;8.116;2024-02-16T03:19:55;0.73;;;0.30;;
20241;SDS011;10279;46.388;8.116;2024-02-16T03:22:22;1.60;;;0.40;;
20241;SDS011;10279;46.388;8.116;2024-02-16T03:24:49;0.67;;;0.60;;
20241;SDS011;10279;46.388;8.116;2024-02-16T03:27:16;0.33;;;0.30;;
20241;SDS011;10279;46.388;8.116;2024-02-16T03:29:44;0.30;;;0.20;;
20241;SDS011;10279;46.388;8.116;2024-02-16T03:32:11;2.03;;;0.40;;
20241;SDS011;10279;46.388;8.116;2024-02-16T03:34:38;0.40;;;0.40;;
20241;SDS011;10279;46.388;8.116;2024-02-16T03:37:05;0.60;;;0.50;;
20241;SDS011;10279;46.388;8.116;2024-02-16T03:39:32;2.33;;;0.30;;
20241;SDS011;10279;46.388;8.116;2024-02-16T03:41:59;0.60;;;0.40;;
20241;SDS011;10279;46.388;8.116;2024-02-16T03:44:27;0.30;;;0.30;;
20241;SDS011;10279;46.388;8.116;2024-02-16T03:46:54;0.30;;;0.30;;
20241;SDS011;10279;46.388;8.116;2024-02-16T03:49:22;0.87;;;0.50;;
20241;SDS011;10279;46.388;8.116;2024-02-16T03:51:49;0.67;;;0.40;;
20241;SDS011;10279;46.388;8.116;2024-02-16T03:54:16;0.20;;;0.20;;
20241;SDS011;10279;46.388;8.116;2024-02-16T03:56:43;2.23;;;0.53;;
20241;SDS011;10279;46.388;8.116;2024-02-16T03:59:11;0.47;;;0.20;;
20241;SDS011;10279;46.388;8.116;2024-02-16T04:01:38;0.77;;;0.30;;
20241;SDS011;10279;46.388;8.116;2024-02-16T04:04:08;1.40;;;0.47;;
20241;SDS011;10279;46.388;8.116;2024-02-16T04:06:36;0.40;;;0.30;;
20241;SDS011;10279;46.388;8.116;2024-02-16T04:09:03;0.30;;;0.30;;
20241;SDS011;10279;46.388;8.116;2024-02-16T04:11:32;1.37;;;0.40;;
20241;SDS011;10279;46.388;8.116;2024-02-16T04:14:00;0.40;;;0.40;;
20241;SDS011;10279;46.388;8.116;2024-02-16T04:16:28;0.77;;;0.40;;
20241;SDS011;10279;46.388;8.116;2024-02-16T04:18:55;0.50;;;0.50;;
20241;SDS011;10279;46.388;8.116;2024-02-16T04:21:22;0.47;;;0.47;;
20241;SDS011;10279;46.388;8.116;2024-02-16T04:23:49;1.03;;;0.60;;
20241;SDS011;10279;46.388;8.116;2024-02-16T04:26:17;0.87;;;0.50;;
20241;SDS011;10279;46.388;8.116;2024-02-16T04:28:44;0.33;;;0.33;;
20241;SDS011;10279;46.388;8.116;2024-02-16T04:31:11;1.30;;;0.50;;
20241;SDS011;10279;46.388;8.116;2024-02-16T04:33:38;0.30;;;0.30;;
20241;SDS011;10279;46.388;8.116;2024-02-16T04:36:06;1.63;;;0.50;;
20241;SDS011;10279;46.388;8.116;2024-02-16T04:38:34;0.43;;;0.43;;
20241;SDS011;10279;46.388;8.116;2024-02-16T04:41:01;0.47;;;0.40;;
20241;SDS011;10279;46.388;8.116;2024-02-16T04:43:28;0.70;;;0.53;;
20241;SDS011;10279;46.388;8.116;2024-02-16T04:45:55;0.50;;;0.40;;
20241;SDS011;10279;46.388;8.116;2024-02-16T04:48:22;1.00;;;0.70;;
20241;SDS011;10279;46.388;8.116;2024-02-16T04:50:49;0.30;;;0.30;;
20241;SDS011;10279;46.388;8.116;2024-02-16T04:53:18;0.77;;;0.40;;
20241;SDS011;10279;46.388;8.116;2024-02-16T04:55:46;0.40;;;0.30;;
20241;SDS011;10279;46.388;8.116;2024-02-16T04:58:14;1.30;;;0.30;;
20241;SDS011;10279;46.388;8.116;2024-02-16T05:00:42;0.33;;;0.27;;
20241;SDS011;10279;46.388;8.116;2024-02-16T05:03:14;0.50;;;0.40;;
20241;SDS011;10279;46.388;8.116;2024-02-16T05:05:41;0.50;;;0.30;;
20241;SDS011;10279;46.388;8.116;2024-02-16T05:08:09;0.40;;;0.40;;
20241;SDS011;10279;46.388;8.116;2024-02-16T05:10:36;0.53;;;0.50;;
20241;SDS011;10279;46.388;8.116;2024-02-16T05:13:03;0.57;;;0.30;;
20241;SDS011;10279;46.388;8.116;2024-02-16T05:15:31;1.20;;;0.60;;
20241;SDS011;10279;46.388;8.116;2024-02-16T05:17:59;0.40;;;0.30;;
20241;SDS011;10279;46.388;8.116;2024-02-16T05:20:27;0.53;;;0.40;;
20241;SDS011;10279;46.388;8.116;2024-02-16T05:22:54;0.37;;;0.30;;
20241;SDS011;10279;46.388;8.116;2024-02-16T05:25:23;0.63;;;0.40;;
20241;SDS011;10279;46.388;8.116;2024-02-16T05:27:50;2.90;;;0.50;;
20241;SDS011;10279;46.388;8.116;2024-02-16T05:30:17;0.90;;;0.50;;
20241;SDS011;10279;46.388;8.116;2024-02-16T05:32:45;0.50;;;0.50;;
20241;SDS011;10279;46.388;8.116;2024-02-16T05:35:12;0.63;;;0.50;;
20241;SDS011;10279;46.388;8.116;2024-02-16T05:37:44;0.87;;;0.30;;
20241;SDS011;10279;46.388;8.116;2024-02-16T05:40:15;1.27;;;0.50;;
20241;SDS011;10279;46.388;8.116;2024-02-16T05:42:57;2.03;;;0.73;;
20241;SDS011;10279;46.388;8.116;2024-02-16T05:45:24;0.33;;;0.33;;
20241;SDS011;10279;46.388;8.116;2024-02-16T05:47:53;1.00;;;0.60;;
20241;SDS011;10279;46.388;8.116;2024-02-16T05:50:21;1.13;;;0.70;;
20241;SDS011;10279;46.388;8.116;2024-02-16T05:52:50;2.53;;;0.63;;
20241;SDS011;10279;46.388;8.116;2024-02-16T05:55:18;1.17;;;0.43;;
20241;SDS011;10279;46.388;8.116;2024-02-16T05:57:45;0.57;;;0.43;;
20241;SDS011;10279;46.388;8.116;2024-02-16T06:00:13;1.07;;;0.50;;
20241;SDS011;10279;46.388;8.116;2024-02-16T06:02:42;1.03;;;0.50;;
20241;SDS011;10279;46.388;8.116;2024-02-16T06:05:09;0.50;;;0.43;;
20241;SDS011;10279;46.388;8.116;2024-02-16T06:07:37;0.50;;;0.50;;
20241;SDS011;10279;46.388;8.116;2024-02-16T06:10:06;0.70;;;0.67;;
20241;SDS011;10279;46.388;8.116;2024-02-16T06:12:38;0.70;;;0.70;;
20241;SDS011;10279;46.388;8.116;2024-02-16T06:15:06;0.63;;;0.60;;
20241;SDS011;10279;46.388;8.116;2024-02-16T06:17:34;1.70;;;0.60;;
20241;SDS011;10279;46.388;8.116;2024-02-16T06:20:03;1.37;;;0.60;;
20241;SDS011;10279;46.388;8.116;2024-02-16T06:22:32;0.70;;;0.70;;
20241;SDS011;10279;46.388;8.116;2024-02-16T06:24:59;1.07;;;0.80;;
20241;SDS011;10279;46.388;8.116;2024-02-16T06:27:27;1.30;;;0.83;;
20241;SDS011;10279;46.388;8.116;2024-02-16T06:29:54;2.83;;;0.60;;
20241;SDS011;10279;46.388;8.116;2024-02-16T06:32:22;3.47;;;0.80;;
20241;SDS011;10279;46.388;8.116;2024-02-16T06:34:50;0.70;;;0.60;;
20241;SDS011;10279;46.388;8.116;2024-02-16T06:37:18;1.30;;;1.00;;
20241;SDS011;10279;46.388;8.116;2024-02-16T06:39:45;2.07;;;1.27;;
20241;SDS011;10279;46.388;8.116;2024-02-16T06:42:12;2.30;;;1.10;;
20241;SDS011;10279;46.388;8.116;2024-02-16T06:44:40;2.13;;;0.80;;
20241;SDS011;10279;46.388;8.116;2024-02-16T06:47:07;1.27;;;0.83;;
20241;SDS011;10279;46.388;8.116;2024-02-16T06:49:34;1.00;;;0.73;;
20241;SDS011;10279;46.388;8.116;2024-02-16T06:52:01;3.80;;;1.20;;
20241;SDS011;10279;46.388;8.116;2024-02-16T06:54:28;4.47;;;1.00;;
20241;SDS011;10279;46.388;8.116;2024-02-16T06:56:55;3.80;;;1.10;;
20241;SDS011;10279;46.388;8.116;2024-02-16T06:59:23;0.90;;;0.70;;
20241;SDS011;10279;46.388;8.116;2024-02-16T07:01:50;2.43;;;0.87;;
20241;SDS011;10279;46.388;8.116;2024-02-16T07:04:17;1.40;;;1.00;;
20241;SDS011;10279;46.388;8.116;2024-02-16T07:06:44;0.80;;;0.60;;
20241;SDS011;10279;46.388;8.116;2024-02-16T07:09:11;0.87;;;0.70;;
20241;SDS011;10279;46.388;8.116;2024-02-16T07:11:42;0.90;;;0.80;;
20241;SDS011;10279;46.388;8.116;2024-02-16T07:14:17;4.30;;;1.00;;
20241;SDS011;10279;46.388;8.116;2024-02-16T07:16:44;1.37;;;1.10;;
20241;SDS011;10279;46.388;8.116;2024-02-16T07:19:12;1.20;;;1.10;;
20241;SDS011;10279;46.388;8.116;2024-02-16T07:21:39;1.47;;;1.13;;
20241;SDS011;10279;46.388;8.116;2024-02-16T07:24:07;1.10;;;1.00;;
20241;SDS011;10279;46.388;8.116;2024-02-16T07:26:35;4.10;;;1.30;;
20241;SDS011;10279;46.388;8.116;2024-02-16T07:29:03;0.93;;;0.70;;
20241;SDS011;10279;46.388;8.116;2024-02-16T07:31:33;1.70;;;1.00;;
20241;SDS011;10279;46.388;8.116;2024-02-16T07:34:01;1.30;;;1.20;;
20241;SDS011;10279;46.388;8.116;2024-02-16T07:36:29;4.10;;;1.07;;
20241;SDS011;10279;46.388;8.116;2024-02-16T07:38:56;1.37;;;1.03;;
20241;SDS011;10279;46.388;8.116;2024-02-16T07:41:23;1.13;;;0.90;;
20241;SDS011;10279;46.388;8.116;2024-02-16T07:43:50;1.17;;;0.83;;
20241;SDS011;10279;46.388;8.116;2024-02-16T07:46:17;0.90;;;0.90;;
20241;SDS011;10279;46.388;8.116;2024-02-16T07:48:44;1.00;;;0.80;;
20241;SDS011;10279;46.388;8.116;2024-02-16T07:51:12;1.00;;;0.80;;
20241;SDS011;10279;46.388;8.116;2024-02-16T07:53:39;1.57;;;0.77;;
20241;SDS011;10279;46.388;8.116;2024-02-16T07:56:08;2.30;;;0.80;;
20241;SDS011;10279;46.388;8.116;2024-02-16T07:58:36;1.20;;;1.10;;
20241;SDS011;10279;46.388;8.116;2024-02-16T08:01:03;1.37;;;1.10;;
20241;SDS011;10279;46.388;8.116;2024-02-16T08:03:30;1.40;;;1.30;;
20241;SDS011;10279;46.388;8.116;2024-02-16T08:05:57;1.90;;;1.57;;
20241;SDS011;10279;46.388;8.116;2024-02-16T08:08:24;1.30;;;1.07;;
20241;SDS011;10279;46.388;8.116;2024-02-16T08:10:52;1.67;;;1.10;;
20241;SDS011;10279;46.388;8.116;2024-02-16T08:13:19;4.40;;;2.13;;
20241;SDS011;10279;46.388;8.116;2024-02-16T08:15:47;3.00;;;1.70;;
20241;SDS011;10279;46.388;8.116;2024-02-16T08:18:14;1.50;;;1.20;;
20241;SDS011;10279;46.388;8.116;2024-02-16T08:20:43;1.70;;;1.30;;
20241;SDS011;10279;46.388;8.116;2024-02-16T08:23:10;5.07;;;1.00;;
20241;SDS011;10279;46.388;8.116;2024-02-16T08:25:37;2.87;;;1.17;;
20241;SDS011;10279;46.388;8.116;2024-02-16T08:28:04;2.90;;;1.10;;
20241;SDS011;10279;46.388;8.116;2024-02-16T08:30:31;1.63;;;1.10;;
20241;SDS011;10279;46.388;8.116;2024-02-16T08:32:59;2.80;;;1.37;;
20241;SDS011;10279;46.388;8.116;2024-02-16T08:35:27;1.47;;;1.33;;
20241;SDS011;10279;46.388;8.116;2024-02-16T08:37:54;1.90;;;1.40;;
20241;SDS011;10279;46.388;8.116;2024-02-16T08:40:21;3.07;;;1.60;;
20241;SDS011;10279;46.388;8.116;2024-02-16T08:42:50;5.23;;;1.33;;
20241;SDS011;10279;46.388;8.116;2024-02-16T08:45:17;3.23;;;1.80;;
20241;SDS011;10279;46.388;8.116;2024-02-16T08:47:44;4.33;;;1.40;;
20241;SDS011;10279;46.388;8.116;2024-02-16T08:50:15;5.03;;;1.40;;
20241;SDS011;10279;46.388;8.116;2024-02-16T08:52:43;4.13;;;1.53;;
20241;SDS011;10279;46.388;8.116;2024-02-16T08:55:11;2.30;;;1.43;;
20241;SDS011;10279;46.388;8.116;2024-02-16T08:57:39;2.47;;;1.60;;
20241;SDS011;10279;46.388;8.116;2024-02-16T09:00:06;3.77;;;1.93;;
20241;SDS011;10279;46.388;8.116;2024-02-16T09:02:34;1.83;;;1.53;;
20241;SDS011;10279;46.388;8.116;2024-02-16T09:05:02;1.90;;;1.37;;
20241;SDS011;10279;46.388;8.116;2024-02-16T09:07:30;2.77;;;1.60;;
20241;SDS011;10279;46.388;8.116;2024-02-16T09:09:57;2.23;;;1.90;;
20241;SDS011;10279;46.388;8.116;2024-02-16T09:12:24;3.90;;;1.80;;
20241;SDS011;10279;46.388;8.116;2024-02-16T09:14:51;2.40;;;1.53;;
20241;SDS011;10279;46.388;8.116;2024-02-16T09:17:18;2.10;;;1.80;;
20241;SDS011;10279;46.388;8.116;2024-02-16T09:19:47;5.17;;;2.87;;
20241;SDS011;10279;46.388;8.116;2024-02-16T09:22:15;3.70;;;2.07;;
20241;SDS011;10279;46.388;8.116;2024-02-16T09:24:42;1.80;;;1.30;;
20241;SDS011;10279;46.388;8.116;2024-02-16T09:27:13;2.30;;;1.30;;
20241;SDS011;10279;46.388;8.116;2024-02-16T09:29:41;2.43;;;1.63;;
20241;SDS011;10279;46.388;8.116;2024-02-16T09:32:08;4.23;;;1.93;;
20241;SDS011;10279;46.388;8.116;2024-02-16T09:34:36;3.00;;;2.27;;
20241;SDS011;10279;46.388;8.116;2024-02-16T09:37:05;3.30;;;2.27;;
20241;SDS011;10279;46.388;8.116;2024-02-16T09:39:32;2.00;;;1.60;;
20241;SDS011;10279;46.388;8.116;2024-02-16T09:42:01;2.13;;;1.70;;
20241;SDS011;10279;46.388;8.116;2024-02-16T09:44:29;2.43;;;1.60;;
20241;SDS011;10279;46.388;8.116;2024-02-16T09:46:57;2.47;;;1.50;;
20241;SDS011;10279;46.388;8.116;2024-02-16T09:49:28;1.73;;;1.43;;
20241;SDS011;10279;46.388;8.116;2024-02-16T09:52:05;1.73;;;1.10;;
20241;SDS011;10279;46.388;8.116;2024-02-16T09:54:38;1.67;;;1.10;;
20241;SDS011;10279;46.388;8.116;2024-02-16T09:57:06;2.47;;;1.63;;
20241;SDS011;10279;46.388;8.116;2024-02-16T09:59:33;3.77;;;1.23;;
20241;SDS011;10279;46.388;8.116;2024-02-16T10:02:01;1.93;;;1.37;;
20241;SDS011;10279;46.388;8.116;2024-02-16T10:04:30;2.03;;;1.23;;
20241;SDS011;10279;46.388;8.116;2024-02-16T10:09:37;2.10;;;1.47;;
20241;SDS011;10279;46.388;8.116;2024-02-16T10:12:05;1.50;;;1.30;;
20241;SDS011;10279;46.388;8.116;2024-02-16T10:14:33;2.43;;;1.20;;
20241;SDS011;10279;46.388;8.116;2024-02-16T10:17:04;2.87;;;1.30;;
20241;SDS011;10279;46.388;8.116;2024-02-16T10:19:33;1.77;;;0.70;;
20241;SDS011;10279;46.388;8.116;2024-02-16T10:22:12;0.60;;;0.53;;
20241;SDS011;10279;46.388;8.116;2024-02-16T10:24:40;0.50;;;0.50;;
20241;SDS011;10279;46.388;8.116;2024-02-16T10:27:18;1.87;;;0.40;;
20241;SDS011;10279;46.388;8.116;2024-02-16T10:29:47;0.40;;;0.40;;
20241;SDS011;10279;46.388;8.116;2024-02-16T10:32:18;0.67;;;0.50;;
20241;SDS011;10279;46.388;8.116;2024-02-16T10:34:47;0.70;;;0.50;;
20241;SDS011;10279;46.388;8.116;2024-02-16T10:37:16;0.60;;;0.60;;
20241;SDS011;10279;46.388;8.116;2024-02-16T10:39:44;0.93;;;0.40;;
20241;SDS011;10279;46.388;8.116;2024-02-16T10:42:12;0.67;;;0.60;;
20241;SDS011;10279;46.388;8.116;2024-02-16T10:44:42;0.60;;;0.60;;
20241;SDS011;10279;46.388;8.116;2024-02-16T10:47:11;0.50;;;0.50;;
20241;SDS011;10279;46.388;8.116;2024-02-16T10:49:38;1.17;;;0.70;;
20241;SDS011;10279;46.388;8.116;2024-02-16T10:52:06;1.27;;;0.60;;
20241;SDS011;10279;46.388;8.116;2024-02-16T10:54:34;1.67;;;0.90;;
20241;SDS011;10279;46.388;8.116;2024-02-16T10:57:07;0.60;;;0.60;;
20241;SDS011;10279;46.388;8.116;2024-02-16T10:59:42;4.20;;;0.87;;
20241;SDS011;10279;46.388;8.116;2024-02-16T11:02:10;1.33;;;0.80;;
20241;SDS011;10279;46.388;8.116;2024-02-16T11:04:38;1.97;;;0.90;;
20241;SDS011;10279;46.388;8.116;2024-02-16T11:09:44;2.27;;;0.80;;
20241;SDS011;10279;46.388;8.116;2024-02-16T11:12:13;2.70;;;1.10;;
20241;SDS011;10279;46.388;8.116;2024-02-16T11:14:43;2.13;;;0.90;;
20241;SDS011;10279;46.388;8.116;2024-02-16T11:17:22;2.17;;;0.53;;
20241;SDS011;10279;46.388;8.116;2024-02-16T11:19:50;0.40;;;0.40;;
20241;SDS011;10279;46.388;8.116;2024-02-16T11:22:22;1.77;;;0.87;;
20241;SDS011;10279;46.388;8.116;2024-02-16T11:24:54;2.03;;;0.90;;
20241;SDS011;10279;46.388;8.116;2024-02-16T11:27:27;1.17;;;0.70;;
20241;SDS011;10279;46.388;8.116;2024-02-16T11:30:00;1.70;;;0.50;;
20241;SDS011;10279;46.388;8.116;2024-02-16T11:32:31;0.80;;;0.70;;
20241;SDS011;10279;46.388;8.116;2024-02-16T11:35:07;0.70;;;0.60;;
20241;SDS011;10279;46.388;8.116;2024-02-16T11:37:35;0.97;;;0.70;;
20241;SDS011;10279;46.388;8.116;2024-02-16T11:40:02;1.40;;;0.60;;
20241;SDS011;10279;46.388;8.116;2024-02-16T11:42:31;0.73;;;0.60;;
20241;SDS011;10279;46.388;8.116;2024-02-16T11:44:58;1.07;;;0.60;;
20241;SDS011;10279;46.388;8.116;2024-02-16T11:47:25;3.63;;;0.90;;
20241;SDS011;10279;46.388;8.116;2024-02-16T11:50:05;1.13;;;0.73;;
20241;SDS011;10279;46.388;8.116;2024-02-16T11:52:40;0.80;;;0.70;;
20241;SDS011;10279;46.388;8.116;2024-02-16T11:55:08;0.80;;;0.70;;
20241;SDS011;10279;46.388;8.116;2024-02-16T11:57:37;0.70;;;0.70;;
20241;SDS011;10279;46.388;8.116;2024-02-16T12:00:05;0.87;;;0.63;;
20241;SDS011;10279;46.388;8.116;2024-02-16T12:02:35;1.73;;;0.90;;
20241;SDS011;10279;46.388;8.116;2024-02-16T12:05:03;0.73;;;0.50;;
20241;SDS011;10279;46.388;8.116;2024-02-16T12:07:31;2.03;;;0.60;;
20241;SDS011;10279;46.388;8.116;2024-02-16T12:10:01;2.50;;;0.50;;
20241;SDS011;10279;46.388;8.116;2024-02-16T12:12:32;0.70;;;0.60;;
20241;SDS011;10279;46.388;8.116;2024-02-16T12:15:01;0.77;;;0.70;;
20241;SDS011;10279;46.388;8.116;2024-02-16T12:17:31;0.70;;;0.70;;
20241;SDS011;10279;46.388;8.116;2024-02-16T12:19:58;0.73;;;0.50;;
20241;SDS011;10279;46.388;8.116;2024-02-16T12:22:26;0.57;;;0.40;;
20241;SDS011;10279;46.388;8.116;2024-02-16T12:24:53;0.90;;;0.60;;
20241;SDS011;10279;46.388;8.116;2024-02-16T12:27:20;1.60;;;0.50;;
20241;SDS011;10279;46.388;8.116;2024-02-16T12:29:47;1.73;;;0.53;;
20241;SDS011;10279;46.388;8.116;2024-02-16T12:32:14;1.23;;;0.80;;
20241;SDS011;10279;46.388;8.116;2024-02-16T12:34:45;1.40;;;0.80;;
20241;SDS011;10279;46.388;8.116;2024-02-16T12:37:13;0.70;;;0.63;;
20241;SDS011;10279;46.388;8.116;2024-02-16T12:39:40;0.97;;;0.80;;
20241;SDS011;10279;46.388;8.116;2024-02-16T12:42:08;1.07;;;0.83;;
20241;SDS011;10279;46.388;8.116;2024-02-16T12:44:35;0.83;;;0.70;;
20241;SDS011;10279;46.388;8.116;2024-02-16T12:47:02;4.17;;;1.07;;
20241;SDS011;10279;46.388;8.116;2024-02-16T12:49:29;2.60;;;1.00;;
20241;SDS011;10279;46.388;8.116;2024-02-16T12:51:57;1.80;;;1.00;;
20241;SDS011;10279;46.388;8.116;2024-02-16T12:54:24;1.33;;;0.73;;
20241;SDS011;10279;46.388;8.116;2024-02-16T12:56:52;0.97;;;0.80;;
20241;SDS011;10279;46.388;8.116;2024-02-16T12:59:20;2.10;;;0.63;;
20241;SDS011;10279;46.388;8.116;2024-02-16T13:01:47;0.83;;;0.60;;
20241;SDS011;10279;46.388;8.116;2024-02-16T13:04:15;0.97;;;0.50;;
20241;SDS011;10279;46.388;8.116;2024-02-16T13:06:48;0.90;;;0.57;;
20241;SDS011;10279;46.388;8.116;2024-02-16T13:09:17;3.53;;;1.30;;
20241;SDS011;10279;46.388;8.116;2024-02-16T13:11:44;0.97;;;0.70;;
20241;SDS011;10279;46.388;8.116;2024-02-16T13:14:12;0.50;;;0.40;;
20241;SDS011;10279;46.388;8.116;2024-02-16T13:16:39;0.97;;;0.63;;
20241;SDS011;10279;46.388;8.116;2024-02-16T13:19:06;0.50;;;0.50;;
20241;SDS011;10279;46.388;8.116;2024-02-16T13:21:33;1.77;;;0.73;;
20241;SDS011;10279;46.388;8.116;2024-02-16T13:24:01;2.17;;;0.70;;
20241;SDS011;10279;46.388;8.116;2024-02-16T13:26:29;2.37;;;0.50;;
20241;SDS011;10279;46.388;8.116;2024-02-16T13:28:56;1.17;;;0.70;;
20241;SDS011;10279;46.388;8.116;2024-02-16T13:31:24;2.63;;;0.80;;
20241;SDS011;10279;46.388;8.116;2024-02-16T13:33:52;1.60;;;0.50;;
20241;SDS011;10279;46.388;8.116;2024-02-16T13:36:20;2.63;;;0.43;;
20241;SDS011;10279;46.388;8.116;2024-02-16T13:38:48;0.40;;;0.40;;
20241;SDS011;10279;46.388;8.116;2024-02-16T13:41:16;0.50;;;0.43;;
20241;SDS011;10279;46.388;8.116;2024-02-16T13:43:46;1.90;;;0.50;;
20241;SDS011;10279;46.388;8.116;2024-02-16T13:46:13;1.80;;;0.53;;
20241;SDS011;10279;46.388;8.116;2024-02-16T13:48:41;1.40;;;0.47;;
20241;SDS011;10279;46.388;8.116;2024-02-16T13:51:09;0.43;;;0.43;;
20241;SDS011;10279;46.388;8.116;2024-02-16T13:53:37;0.50;;;0.50;;
20241;SDS011;10279;46.388;8.116;2024-02-16T13:56:04;0.63;;;0.50;;
20241;SDS011;10279;46.388;8.116;2024-02-16T13:58:33;1.20;;;0.80;;
20241;SDS011;10279;46.388;8.116;2024-02-16T14:01:02;4.73;;;0.60;;
20241;SDS011;10279;46.388;8.116;2024-02-16T14:03:30;0.47;;;0.40;;
20241;SDS011;10279;46.388;8.116;2024-02-16T14:05:59;1.57;;;0.60;;
20241;SDS011;10279;46.388;8.116;2024-02-16T14:08:27;1.33;;;0.60;;
20241;SDS011;10279;46.388;8.116;2024-02-16T14:10:54;1.60;;;0.50;;
20241;SDS011;10279;46.388;8.116;2024-02-16T14:13:21;0.70;;;0.50;;
20241;SDS011;10279;46.388;8.116;2024-02-16T14:15:51;1.47;;;0.70;;
20241;SDS011;10279;46.388;8.116;2024-02-16T14:18:19;1.70;;;0.43;;
20241;SDS011;10279;46.388;8.116;2024-02-16T14:21:00;1.03;;;0.70;;
20241;SDS011;10279;46.388;8.116;2024-02-16T14:23:31;0.80;;;0.60;;
20241;SDS011;10279;46.388;8.116;2024-02-16T14:25:58;0.60;;;0.60;;
20241;SDS011;10279;46.388;8.116;2024-02-16T14:28:26;0.40;;;0.40;;
20241;SDS011;10279;46.388;8.116;2024-02-16T14:30:53;1.03;;;0.60;;
20241;SDS011;10279;46.388;8.116;2024-02-16T14:33:21;0.60;;;0.40;;
20241;SDS011;10279;46.388;8.116;2024-02-16T14:36:00;1.03;;;0.80;;
20241;SDS011;10279;46.388;8.116;2024-02-16T14:38:28;0.60;;;0.60;;
20241;SDS011;10279;46.388;8.116;2024-02-16T14:40:55;0.77;;;0.53;;
20241;SDS011;10279;46.388;8.116;2024-02-16T14:43:22;0.93;;;0.60;;
20241;SDS011;10279;46.388;8.116;2024-02-16T14:45:50;1.20;;;0.63;;
20241;SDS011;10279;46.388;8.116;2024-02-16T14:48:17;2.50;;;0.70;;
20241;SDS011;10279;46.388;8.116;2024-02-16T14:50:44;1.03;;;0.70;;
20241;SDS011;10279;46.388;8.116;2024-02-16T14:53:11;0.53;;;0.50;;
20241;SDS011;10279;46.388;8.116;2024-02-16T14:55:39;0.80;;;0.60;;
20241;SDS011;10279;46.388;8.116;2024-02-16T14:58:06;0.80;;;0.60;;